Time;durP1;ratioP1;P1;durP2;ratioP2;P2;SDS_P1;SDS_P2;PMS_P1;PMS_P2;Temp;Humidity;BMP_temperature;BMP_pressure;BME280_temperature;BME280_humidity;BME280_pressure;Samples;Min_cycle;Max_cycle;Signal;HPM_P1;HPM_P2
2022/12/25 00:01:31;;;;;;;20.17;9.25;;;;;;;7.28;94.70;99336.77;1623064;88;21088;-76
2022/12/25 00:03:59;;;;;;;19.65;8.98;;;;;;;7.34;94.40;99335.42;1623095;88;21090;-77
2022/12/25 00:06:26;;;;;;;16.40;8.80;;;;;;;7.28;94.65;99329.00;1623076;88;21025;-76
2022/12/25 00:08:54;;;;;;;18.27;9.10;;;;;;;7.29;94.69;99338.50;1622764;88;21101;-77
2022/12/25 00:11:21;;;;;;;17.50;8.40;;;;;;;7.25;94.74;99331.19;1623067;88;21523;-77
2022/12/25 00:13:49;;;;;;;19.87;8.88;;;;;;;7.25;94.67;99329.90;1623017;88;21584;-76
2022/12/25 00:16:21;;;;;;;21.27;9.43;;;;;;;7.19;94.87;99339.44;1623067;88;21022;-76
2022/12/25 00:18:50;;;;;;;16.62;8.63;;;;;;;7.19;94.83;99336.41;1622822;88;21579;-76
2022/12/25 00:21:19;;;;;;;20.50;9.20;;;;;;;7.17;94.52;99337.71;1623016;88;20991;-76
2022/12/25 00:23:46;;;;;;;16.85;9.23;;;;;;;7.14;94.64;99340.75;1622925;88;21033;-76
2022/12/25 00:26:16;;;;;;;18.73;9.30;;;;;;;7.13;94.64;99350.68;1623148;88;21598;-76
2022/12/25 00:28:44;;;;;;;17.27;8.80;;;;;;;7.08;94.62;99364.94;1623140;88;21091;-76
2022/12/25 00:31:15;;;;;;;15.38;7.80;;;;;;;7.05;94.73;99366.69;1623033;88;21011;-76
2022/12/25 00:33:46;;;;;;;21.62;8.15;;;;;;;7.05;94.51;99377.88;1623085;88;21050;-76
2022/12/25 00:36:17;;;;;;;21.27;8.80;;;;;;;7.02;94.80;99382.20;1621958;88;21117;-76
2022/12/25 00:38:50;;;;;;;17.52;8.48;;;;;;;7.01;94.96;99381.80;1621746;88;21079;-76
2022/12/25 00:44:12;;;;;;;20.15;8.98;;;;;;;6.99;95.21;99392.13;1621803;88;21701;-77
2022/12/25 00:46:41;;;;;;;19.95;8.20;;;;;;;6.95;95.22;99388.70;1622364;88;21968;-77
2022/12/25 00:49:09;;;;;;;16.85;8.10;;;;;;;6.94;94.92;99388.29;1623152;88;21083;-76
2022/12/25 00:51:37;;;;;;;21.97;8.60;;;;;;;6.91;95.06;99379.25;1623958;88;21054;-76
2022/12/25 00:54:04;;;;;;;22.42;9.80;;;;;;;6.85;95.17;99377.99;1623931;88;21035;-76
2022/12/25 00:56:33;;;;;;;21.37;9.05;;;;;;;6.84;94.95;99375.41;1623885;88;21118;-76
2022/12/25 00:59:01;;;;;;;18.62;8.35;;;;;;;6.78;94.96;99380.17;1625089;88;21047;-77
2022/12/25 01:01:28;;;;;;;18.98;8.95;;;;;;;6.74;95.10;99389.69;1610195;88;21014;-76
2022/12/25 01:03:56;;;;;;;18.57;7.60;;;;;;;6.72;94.88;99389.25;1599312;88;21034;-76
2022/12/25 01:06:24;;;;;;;17.45;8.75;;;;;;;6.69;94.76;99397.03;1599353;90;21078;-76
2022/12/25 01:11:37;;;;;;;20.92;8.30;;;;;;;6.60;94.90;99397.91;1599428;89;21093;-76
2022/12/25 01:14:05;;;;;;;17.35;7.55;;;;;;;6.54;95.39;99394.91;1599340;90;21050;-76
2022/12/25 01:16:33;;;;;;;16.97;7.20;;;;;;;6.51;95.49;99398.82;1599424;88;21070;-76
2022/12/25 01:19:00;;;;;;;19.17;8.05;;;;;;;6.49;95.51;99392.80;1599297;90;21043;-76
2022/12/25 01:21:28;;;;;;;20.65;8.33;;;;;;;6.46;95.91;99394.09;1599387;89;21070;-76
2022/12/25 01:23:56;;;;;;;21.35;8.03;;;;;;;6.43;95.74;99394.12;1599308;89;21098;-76
2022/12/25 01:26:25;;;;;;;17.30;8.35;;;;;;;6.41;95.54;99397.58;1599379;88;21030;-76
2022/12/25 01:28:53;;;;;;;15.08;8.30;;;;;;;6.38;95.54;99394.11;1599343;88;21098;-77
2022/12/25 01:31:23;;;;;;;18.60;8.55;;;;;;;6.32;95.98;99394.58;1599403;90;21053;-77
2022/12/25 01:33:51;;;;;;;21.93;7.90;;;;;;;6.29;95.94;99383.83;1613960;88;21030;-76
2022/12/25 01:36:22;;;;;;;19.70;8.53;;;;;;;6.28;95.99;99398.03;1624615;88;21605;-76
2022/12/25 01:38:52;;;;;;;20.77;8.18;;;;;;;6.25;95.74;99391.61;1621261;88;21041;-76
2022/12/25 01:41:22;;;;;;;22.58;8.58;;;;;;;6.24;95.29;99392.45;1623497;88;21003;-76
2022/12/25 01:44:12;;;;;;;19.48;8.50;;;;;;;6.20;95.95;99385.58;1617306;88;21074;-77
2022/12/25 01:46:41;;;;;;;17.55;8.40;;;;;;;6.16;96.09;99391.17;1613049;88;21644;-76
2022/12/25 01:49:17;;;;;;;20.08;9.05;;;;;;;6.15;96.37;99396.78;1615742;87;21079;-76
2022/12/25 01:52:11;;;;;;;25.02;8.93;;;;;;;6.17;96.07;99398.92;1615226;88;21038;-76
2022/12/25 01:54:46;;;;;;;17.45;7.65;;;;;;;6.18;96.14;99395.91;1615350;88;21507;-77
2022/12/25 01:57:19;;;;;;;19.52;7.28;;;;;;;6.19;96.26;99395.05;1619209;88;21059;-76
2022/12/25 01:59:47;;;;;;;15.45;7.50;;;;;;;6.21;96.36;99389.86;1616815;88;21585;-76
2022/12/25 02:02:15;;;;;;;16.65;7.70;;;;;;;6.23;96.20;99393.30;1617385;88;21065;-76
2022/12/25 02:05:00;;;;;;;18.62;7.90;;;;;;;6.27;95.96;99384.27;1598327;88;21027;-76
2022/12/25 02:07:31;;;;;;;14.60;7.10;;;;;;;6.29;95.78;99381.69;1616958;88;21110;-76
2022/12/25 02:09:59;;;;;;;15.63;7.03;;;;;;;6.29;95.90;99380.40;1619413;88;21103;-76
2022/12/25 02:12:30;;;;;;;20.27;8.10;;;;;;;6.27;96.16;99385.56;1620235;88;21107;-76
2022/12/25 02:15:06;;;;;;;16.00;7.00;;;;;;;6.29;96.05;99382.98;1622107;88;21348;-76
2022/12/25 02:17:48;;;;;;;15.68;7.45;;;;;;;6.32;96.01;99386.83;1622022;88;21086;-76
2022/12/25 02:20:37;;;;;;;15.93;8.00;;;;;;;6.28;96.14;99387.70;1622497;88;21030;-76
2022/12/25 02:23:33;;;;;;;17.45;7.12;;;;;;;6.29;95.95;99383.83;1620803;88;21058;-76
2022/12/25 02:26:28;;;;;;;16.02;7.25;;;;;;;6.30;95.50;99388.55;1622202;88;21102;-76
2022/12/25 02:29:00;;;;;;;;;;;;;;;6.23;95.80;99381.68;1624755;88;21916;-76
2022/12/25 02:31:42;;;;;;;19.23;7.75;;;;;;;6.22;95.67;99394.18;1622201;88;20188;-76
2022/12/25 02:34:18;;;;;;;14.10;7.05;;;;;;;6.20;95.65;99398.48;1622166;88;21122;-76
2022/12/25 02:37:06;;;;;;;22.82;7.62;;;;;;;6.17;95.62;99397.63;1622153;88;21630;-77
2022/12/25 02:40:03;;;;;;;18.20;7.53;;;;;;;6.15;95.71;99403.23;1621056;88;21071;-76
2022/12/25 03:08:40;;;;;;;20.43;6.72;;;;;;;5.66;95.53;99433.36;1587992;89;21109;-76
2022/12/25 03:16:54;;;;;;;14.53;6.67;;;;;;;5.57;95.70;99449.27;1606178;89;21088;-76
2022/12/25 03:27:55;;;;;;;17.15;6.97;;;;;;;5.53;95.51;99458.27;1606129;89;21038;-77
2022/12/25 03:35:21;;;;;;;22.40;8.40;;;;;;;5.49;95.76;99453.96;1606169;89;21061;-76
2022/12/25 03:36:23;;;;;;;21.42;8.80;;;;;;;5.45;95.53;99457.40;1602751;88;21055;-76
2022/12/25 03:40:31;;;;;;;22.58;7.87;;;;;;;5.41;96.01;99467.28;1605655;89;21034;-77
2022/12/25 04:38:13;;;;;;;22.13;8.65;;;;;;;4.77;97.31;99506.16;1582537;89;21037;-75
2022/12/25 04:40:41;;;;;;;20.50;8.58;;;;;;;4.71;97.45;99507.41;1574439;90;21065;-75
2022/12/25 04:43:08;;;;;;;20.88;8.25;;;;;;;4.71;97.31;99525.00;1599015;88;21035;-76
2022/12/25 04:45:36;;;;;;;22.00;8.93;;;;;;;4.67;96.86;99519.84;1628911;87;21016;-76
2022/12/25 04:48:04;;;;;;;20.43;8.83;;;;;;;4.57;97.67;99524.92;1621883;87;21138;-76
2022/12/25 04:50:31;;;;;;;19.55;7.75;;;;;;;4.55;97.68;99533.50;1626213;87;21101;-76
2022/12/25 04:52:58;;;;;;;21.60;9.15;;;;;;;4.51;96.89;99532.62;1626857;86;21045;-75
2022/12/25 04:55:26;;;;;;;20.40;7.95;;;;;;;4.48;97.28;99542.91;1626847;88;21152;-76
2022/12/25 04:57:53;;;;;;;21.05;8.48;;;;;;;4.45;97.58;99547.17;1628817;87;21966;-76
2022/12/25 05:00:21;;;;;;;18.35;8.43;;;;;;;4.35;97.88;99544.95;1628844;87;21669;-76
2022/12/25 05:02:48;;;;;;;18.55;8.10;;;;;;;4.42;97.78;99550.59;1629690;88;21074;-76
2022/12/25 05:05:16;;;;;;;18.87;9.15;;;;;;;4.42;98.64;99554.46;1622271;88;21057;-76
2022/12/25 05:07:43;;;;;;;18.35;8.05;;;;;;;4.42;98.28;99555.75;1630456;88;21101;-75
2022/12/25 05:10:11;;;;;;;19.50;7.83;;;;;;;4.40;97.93;99562.59;1624937;87;21014;-75
2022/12/25 05:12:38;;;;;;;18.98;9.43;;;;;;;4.38;97.69;99563.87;1625644;88;21085;-76
2022/12/25 05:15:06;;;;;;;19.45;9.13;;;;;;;4.37;97.49;99567.71;1628527;87;21037;-75
2022/12/25 05:17:34;;;;;;;17.82;7.80;;;;;;;4.34;97.96;99564.70;1631133;88;21117;-76
2022/12/25 05:20:03;;;;;;;28.07;8.88;;;;;;;4.32;97.64;99573.27;1629159;87;21041;-75
2022/12/25 05:22:31;;;;;;;18.80;8.20;;;;;;;4.31;97.90;99592.12;1630822;88;21538;-75
2022/12/25 05:24:58;;;;;;;18.07;8.98;;;;;;;4.29;98.36;99592.53;1630298;87;21506;-75
2022/12/25 05:27:27;;;;;;;22.30;9.15;;;;;;;4.32;99.12;99590.00;1620095;88;22881;-75
2022/12/25 05:29:55;;;;;;;19.90;9.18;;;;;;;4.33;98.43;99592.56;1626949;87;21097;-75
2022/12/25 05:32:22;;;;;;;28.87;12.47;;;;;;;4.36;97.83;99599.47;1627459;88;21073;-76
2022/12/25 05:34:49;;;;;;;28.92;10.15;;;;;;;4.33;98.41;99599.42;1628995;87;21081;-75
2022/12/25 05:37:17;;;;;;;25.80;10.03;;;;;;;4.32;98.25;99605.02;1624934;88;21077;-76
2022/12/25 05:39:44;;;;;;;21.33;9.38;;;;;;;4.36;97.68;99614.91;1630886;87;21065;-76
2022/12/25 05:42:12;;;;;;;24.25;9.88;;;;;;;4.34;99.36;99621.33;1623574;88;21085;-76
2022/12/25 05:44:39;;;;;;;26.10;9.10;;;;;;;4.38;99.08;99624.36;1630876;88;21077;-76
2022/12/25 05:47:07;;;;;;;21.20;9.18;;;;;;;4.39;99.53;99620.92;1623278;87;21117;-76
2022/12/25 05:49:34;;;;;;;24.72;9.55;;;;;;;4.41;98.94;99624.80;1621925;87;21076;-76
2022/12/25 05:52:02;;;;;;;24.95;9.75;;;;;;;4.39;99.63;99620.92;1616315;88;21055;-77
2022/12/25 05:54:29;;;;;;;25.92;10.03;;;;;;;4.40;99.51;99623.09;1624838;88;21044;-76
2022/12/25 05:56:57;;;;;;;16.85;8.83;;;;;;;4.37;99.91;99625.63;1604967;88;21098;-76
2022/12/25 05:59:25;;;;;;;19.20;10.35;;;;;;;4.38;99.50;99630.80;1612891;89;21070;-76
2022/12/25 06:01:52;;;;;;;24.07;9.70;;;;;;;4.39;99.46;99639.38;1589637;89;21598;-76
2022/12/25 06:04:19;;;;;;;20.88;9.70;;;;;;;4.39;99.65;99647.95;1610848;89;20994;-76
2022/12/25 06:06:47;;;;;;;22.48;9.30;;;;;;;4.37;100.00;99645.80;1610011;88;20995;-76
2022/12/25 06:09:14;;;;;;;21.23;9.65;;;;;;;4.40;100.00;99641.12;1610568;89;21066;-76
2022/12/25 06:11:42;;;;;;;21.68;9.20;;;;;;;4.38;100.00;99637.67;1611874;88;21014;-76
2022/12/25 06:14:15;;;;;;;27.52;10.08;;;;;;;4.39;99.60;99634.23;1608067;88;21031;-77
2022/12/25 06:16:43;;;;;;;21.97;10.10;;;;;;;4.36;99.02;99631.21;1613622;88;21011;-76
2022/12/25 06:19:11;;;;;;;21.00;10.38;;;;;;;4.29;99.74;99626.84;1608087;89;20998;-76
2022/12/25 06:21:39;;;;;;;26.57;10.23;;;;;;;4.27;99.38;99627.69;1596137;89;21038;-76
2022/12/25 06:24:06;;;;;;;25.02;9.53;;;;;;;4.22;99.92;99628.06;1609049;88;21078;-76
2022/12/25 06:26:34;;;;;;;21.62;10.23;;;;;;;4.16;99.88;99629.75;1612161;89;21555;-76
2022/12/25 06:29:01;;;;;;;22.00;10.28;;;;;;;4.17;99.41;99636.61;1611720;88;21574;-76
2022/12/25 06:31:29;;;;;;;21.02;9.75;;;;;;;4.12;99.37;99644.73;1612545;88;21495;-76
2022/12/25 06:33:56;;;;;;;24.55;11.05;;;;;;;4.07;99.35;99647.66;1587376;88;21553;-76
2022/12/25 06:36:26;;;;;;;19.20;8.83;;;;;;;3.98;100.00;99654.88;1608237;89;21817;-76
2022/12/25 06:38:54;;;;;;;25.30;9.35;;;;;;;4.01;98.83;99663.47;1589825;88;21080;-76
2022/12/25 06:41:24;;;;;;;20.70;10.23;;;;;;;3.94;99.32;99671.13;1584017;89;21020;-76
2022/12/25 06:43:55;;;;;;;22.40;9.55;;;;;;;3.92;99.32;99674.11;1608235;88;21054;-76
2022/12/25 06:46:27;;;;;;;35.80;11.40;;;;;;;3.92;99.61;99678.37;1612157;88;21008;-76
2022/12/25 06:48:56;;;;;;;42.00;18.67;;;;;;;3.87;99.29;99679.61;1604818;88;21052;-76
2022/12/25 06:51:27;;;;;;;41.85;18.90;;;;;;;3.87;99.13;99680.05;1591865;89;21044;-76
2022/12/25 06:53:55;;;;;;;28.67;12.75;;;;;;;3.86;99.11;99687.30;1601898;89;21068;-76
2022/12/25 06:56:26;;;;;;;23.45;10.65;;;;;;;3.84;100.00;99687.70;1619451;88;21030;-76
2022/12/25 06:59:08;;;;;;;21.35;9.88;;;;;;;3.83;99.91;99691.14;1624323;88;21531;-76
2022/12/25 07:01:47;;;;;;;24.82;9.98;;;;;;;3.84;100.00;99693.74;1623886;88;21035;-76
2022/12/25 07:04:26;;;;;;;20.35;9.25;;;;;;;3.87;100.00;99698.91;1623629;88;21968;-76
2022/12/25 07:06:53;;;;;;;19.35;9.15;;;;;;;3.92;100.00;99697.27;1618526;88;21007;-76
2022/12/25 07:09:20;;;;;;;26.93;11.10;;;;;;;3.99;99.81;99700.75;1625017;88;21046;-76
2022/12/25 07:11:48;;;;;;;21.00;10.03;;;;;;;3.99;100.00;99701.61;1619619;88;21042;-76
2022/12/25 07:14:22;;;;;;;24.10;8.95;;;;;;;4.06;100.00;99705.14;1625035;88;21550;-76
2022/12/25 07:16:49;;;;;;;22.60;10.10;;;;;;;4.09;100.00;99702.58;1617473;88;21515;-76
2022/12/25 07:19:18;;;;;;;24.60;9.78;;;;;;;4.14;100.00;99700.08;1625017;88;21503;-76
2022/12/25 07:21:46;;;;;;;26.68;10.32;;;;;;;4.21;100.00;99708.28;1624935;88;21511;-76
2022/12/25 07:24:21;;;;;;;24.72;11.05;;;;;;;4.21;100.00;99718.58;1624966;88;21067;-77
2022/12/25 07:26:50;;;;;;;23.15;9.83;;;;;;;4.22;100.00;99722.00;1611629;88;21082;-76
2022/12/25 07:29:18;;;;;;;20.82;10.05;;;;;;;4.29;100.00;99727.67;1620052;88;21042;-76
2022/12/25 07:31:46;;;;;;;22.25;9.93;;;;;;;4.34;100.00;99733.74;1621112;88;21010;-76
2022/12/25 07:34:16;;;;;;;22.73;9.80;;;;;;;4.41;100.00;99730.36;1621719;88;21022;-76
2022/12/25 07:36:44;;;;;;;27.37;9.75;;;;;;;4.48;100.00;99740.32;1622764;88;21035;-76
2022/12/25 07:39:12;;;;;;;25.40;10.98;;;;;;;4.53;100.00;99735.63;1623698;88;20990;-76
2022/12/25 07:41:39;;;;;;;24.00;9.80;;;;;;;4.56;100.00;99736.10;1623005;87;21050;-76
2022/12/25 07:44:09;;;;;;;18.57;9.28;;;;;;;4.61;100.00;99736.98;1613195;88;21094;-76
2022/12/25 07:46:37;;;;;;;24.52;11.03;;;;;;;4.63;100.00;99738.30;1623584;88;21010;-77
2022/12/25 07:49:04;;;;;;;23.05;10.95;;;;;;;4.67;100.00;99742.63;1619284;88;20995;-76
2022/12/25 07:51:31;;;;;;;24.45;10.05;;;;;;;4.72;100.00;99735.38;1623015;87;21059;-76
2022/12/25 07:53:59;;;;;;;22.55;11.08;;;;;;;4.84;100.00;99737.64;1609752;88;21022;-76
2022/12/25 07:56:27;;;;;;;18.50;8.65;;;;;;;4.89;100.00;99741.95;1622922;87;21075;-76
2022/12/25 07:58:54;;;;;;;27.02;9.33;;;;;;;4.93;100.00;99741.16;1610544;88;20987;-76
2022/12/25 08:01:25;;;;;;;28.83;11.65;;;;;;;5.04;100.00;99736.51;1622955;88;21042;-76
2022/12/25 08:03:57;;;;;;;25.12;9.78;;;;;;;5.07;100.00;99745.09;1616272;88;21026;-76
2022/12/25 08:06:28;;;;;;;22.77;9.33;;;;;;;5.10;100.00;99741.27;1607022;88;21046;-76
2022/12/25 08:09:07;;;;;;;21.42;9.05;;;;;;;5.21;100.00;99749.50;1612967;88;21069;-76
2022/12/25 08:11:35;;;;;;;22.93;10.93;;;;;;;5.24;100.00;99759.41;1604089;88;21541;-78
2022/12/25 08:14:07;;;;;;;25.32;10.35;;;;;;;5.31;100.00;99763.77;1615398;88;20995;-76
2022/12/25 08:16:38;;;;;;;28.30;11.35;;;;;;;5.38;100.00;99768.53;1617550;88;21058;-76
2022/12/25 08:19:04;;;;;;;31.15;11.65;;;;;;;5.43;100.00;99771.14;1615387;88;21022;-76
2022/12/25 08:21:32;;;;;;;29.48;12.28;;;;;;;5.52;100.00;99772.50;1622860;88;21657;-76
2022/12/25 08:24:01;;;;;;;26.23;10.43;;;;;;;5.51;100.00;99774.63;1617273;88;21892;-77
2022/12/25 08:26:29;;;;;;;24.67;10.75;;;;;;;5.60;100.00;99785.01;1621961;88;21038;-77
2022/12/25 08:28:57;;;;;;;22.60;10.90;;;;;;;5.62;100.00;99802.64;1620572;88;21069;-76
2022/12/25 08:31:28;;;;;;;25.15;10.98;;;;;;;5.63;100.00;99791.89;1612128;88;21042;-76
2022/12/25 08:33:58;;;;;;;27.37;11.90;;;;;;;5.64;100.00;99790.63;1621257;87;20998;-76
2022/12/25 08:36:26;;;;;;;30.90;11.20;;;;;;;5.64;100.00;99788.04;1619718;88;21061;-76
2022/12/25 08:38:54;;;;;;;29.57;11.22;;;;;;;5.76;100.00;99798.86;1623508;88;21038;-76
2022/12/25 08:41:22;;;;;;;27.27;11.48;;;;;;;5.75;100.00;99812.20;1623387;88;21045;-76
2022/12/25 08:43:50;;;;;;;30.80;11.15;;;;;;;5.71;100.00;99807.88;1623406;87;21033;-76
2022/12/25 08:46:18;;;;;;;23.67;11.28;;;;;;;5.74;100.00;99812.18;1623277;88;21573;-76
2022/12/25 08:48:47;;;;;;;24.32;10.72;;;;;;;5.74;100.00;99815.62;1623164;88;21003;-77
2022/12/25 08:51:19;;;;;;;30.40;12.40;;;;;;;5.79;100.00;99819.53;1631256;87;21047;-76
2022/12/25 08:53:49;;;;;;;28.27;12.23;;;;;;;5.84;100.00;99821.70;1637730;86;21071;-76
2022/12/25 08:56:17;;;;;;;27.90;12.53;;;;;;;5.92;100.00;99814.00;1625254;88;21087;-76
2022/12/25 08:58:46;;;;;;;31.52;11.65;;;;;;;5.99;99.96;99819.67;1614087;89;21071;-76
2022/12/25 09:01:14;;;;;;;28.38;12.20;;;;;;;6.00;100.00;99809.77;1614080;89;21095;-76
2022/12/25 09:03:42;;;;;;;23.25;10.43;;;;;;;6.04;100.00;99810.66;1614080;87;21593;-76
2022/12/25 09:06:13;;;;;;;27.37;11.48;;;;;;;6.11;99.94;99812.42;1614027;88;21550;-76
2022/12/25 09:08:42;;;;;;;22.02;10.15;;;;;;;6.11;99.47;99802.95;1613959;89;21082;-76
2022/12/25 09:11:13;;;;;;;24.72;10.60;;;;;;;6.17;99.38;99810.72;1614039;89;21522;-76
2022/12/25 09:13:40;;;;;;;20.65;11.10;;;;;;;6.17;98.95;99821.05;1613105;88;21570;-76
2022/12/25 09:16:19;;;;;;;23.45;10.35;;;;;;;6.16;99.07;99819.30;1612738;88;21136;-76
2022/12/25 09:18:47;;;;;;;28.45;11.75;;;;;;;6.24;98.75;99830.10;1596397;88;21038;-76
2022/12/25 09:21:16;;;;;;;27.35;9.53;;;;;;;6.23;98.57;99829.66;1587386;90;21090;-76
2022/12/25 09:23:44;;;;;;;24.85;11.10;;;;;;;6.32;98.46;99838.74;1587420;90;21066;-76
2022/12/25 09:26:14;;;;;;;19.48;8.95;;;;;;;6.33;98.30;99842.63;1587321;90;21090;-76
2022/12/25 09:28:43;;;;;;;21.70;8.63;;;;;;;6.47;98.26;99836.66;1588682;90;21586;-76
2022/12/25 09:31:10;;;;;;;20.08;9.40;;;;;;;6.50;97.62;99840.09;1588637;90;21053;-76
2022/12/25 09:33:38;;;;;;;19.15;9.33;;;;;;;6.54;97.46;99839.68;1588668;90;21105;-76
2022/12/25 09:36:07;;;;;;;18.90;9.10;;;;;;;6.58;97.49;99843.99;1574511;90;21035;-76
2022/12/25 09:38:35;;;;;;;21.30;9.05;;;;;;;6.63;97.10;99844.89;1588641;90;21011;-76
2022/12/25 09:41:23;;;;;;;19.40;7.85;;;;;;;6.69;96.98;99853.95;1588606;89;21057;-76
2022/12/25 09:44:10;;;;;;;17.80;8.33;;;;;;;6.74;96.24;99850.07;1588343;89;21562;-76
2022/12/25 09:46:46;;;;;;;21.27;10.30;;;;;;;6.81;96.51;99840.19;1588779;90;21066;-76
2022/12/25 09:49:25;;;;;;;23.15;9.18;;;;;;;6.90;95.90;99837.64;1588789;90;21065;-77
2022/12/25 09:52:01;;;;;;;15.80;8.25;;;;;;;6.90;95.83;99852.26;1582059;89;21115;-77
2022/12/25 09:54:55;;;;;;;17.30;9.60;;;;;;;6.92;95.73;99851.83;1579743;90;21058;-76
2022/12/25 09:57:25;;;;;;;21.30;8.85;;;;;;;6.99;96.24;99863.92;1574732;91;21074;-76
2022/12/25 09:59:55;;;;;;;23.70;8.88;;;;;;;7.04;95.86;99853.14;1565824;91;21072;-76
2022/12/25 10:02:39;;;;;;;23.75;8.70;;;;;;;7.06;95.60;99854.44;1604563;89;22013;-76
2022/12/25 10:05:45;;;;;;;18.17;7.62;;;;;;;7.08;95.42;99861.77;1604548;89;21016;-77
2022/12/25 10:08:36;;;;;;;22.05;8.75;;;;;;;7.19;95.48;99854.89;1565637;91;21082;-76
2022/12/25 10:11:29;;;;;;;16.93;8.15;;;;;;;7.15;95.09;99863.08;1604136;88;21016;-77
2022/12/25 10:14:32;;;;;;;18.60;7.87;;;;;;;7.19;94.88;99860.51;1604519;89;21959;-76
2022/12/25 10:17:30;;;;;;;22.48;9.25;;;;;;;7.20;94.81;99865.66;1567788;90;21529;-76
2022/12/25 10:20:08;;;;;;;15.28;7.92;;;;;;;7.29;95.03;99860.50;1479595;95;21046;-77
2022/12/25 10:22:44;;;;;;;15.75;7.12;;;;;;;7.35;94.20;99863.09;1610862;89;21028;-76
2022/12/25 10:25:17;;;;;;;17.85;8.18;;;;;;;7.51;94.34;99854.03;1592996;89;20999;-76
2022/12/25 10:27:52;;;;;;;16.32;7.30;;;;;;;7.52;94.15;99851.86;1602997;89;21013;-76
2022/12/25 10:30:23;;;;;;;16.32;6.80;;;;;;;7.58;92.88;99851.89;1603616;89;21032;-77
2022/12/25 10:32:55;;;;;;;13.25;5.85;;;;;;;7.66;92.76;99849.27;1615126;88;21509;-76
2022/12/25 10:35:26;;;;;;;16.42;6.80;;;;;;;7.68;91.42;99851.02;1603310;88;21509;-77
2022/12/25 10:38:04;;;;;;;17.17;7.47;;;;;;;7.76;92.07;99856.18;1599475;89;21016;-76
2022/12/25 10:41:00;;;;;;;14.70;7.28;;;;;;;7.84;92.73;99845.38;1603509;89;20973;-77
2022/12/25 10:43:50;;;;;;;14.35;7.40;;;;;;;7.89;92.26;99844.06;1615247;89;21051;-77
2022/12/25 10:46:19;;;;;;;15.50;7.15;;;;;;;7.95;91.72;99841.45;1605785;89;21029;-76
2022/12/25 10:48:52;;;;;;;19.77;7.97;;;;;;;7.99;91.54;99848.34;1615341;88;21020;-77
2022/12/25 10:51:33;;;;;;;16.75;7.25;;;;;;;8.06;91.57;99850.52;1600254;89;21595;-77
2022/12/25 10:54:05;;;;;;;13.20;6.25;;;;;;;8.20;91.44;99850.44;1629462;87;21038;-76
2022/12/25 10:56:32;;;;;;;17.27;6.83;;;;;;;8.26;91.36;99838.79;1617172;88;21081;-76
2022/12/25 10:59:05;;;;;;;13.72;6.22;;;;;;;8.29;90.64;99847.83;1630210;87;21869;-77
2022/12/25 11:01:33;;;;;;;13.72;6.30;;;;;;;8.33;89.80;99840.47;1618847;88;21053;-76
2022/12/25 11:04:01;;;;;;;12.88;6.33;;;;;;;8.42;89.30;99842.21;1620568;88;21006;-77
2022/12/25 11:06:32;;;;;;;15.25;7.00;;;;;;;8.48;88.63;99847.36;1624596;87;21106;-76
2022/12/25 11:09:01;;;;;;;11.25;6.08;;;;;;;8.60;89.64;99847.74;1619324;88;21597;-76
2022/12/25 11:11:29;;;;;;;15.15;6.55;;;;;;;8.67;89.12;99847.67;1626571;87;21073;-77
2022/12/25 11:14:00;;;;;;;12.58;5.90;;;;;;;8.65;88.15;99848.12;1631027;87;21058;-76
2022/12/25 11:16:38;;;;;;;13.58;6.15;;;;;;;8.75;88.22;99851.52;1624408;87;21070;-77
2022/12/25 11:19:30;;;;;;;14.80;6.10;;;;;;;8.67;87.68;99841.64;1619024;87;21063;-76
2022/12/25 11:22:01;;;;;;;15.60;6.00;;;;;;;8.66;87.08;99843.82;1623614;87;20983;-76
2022/12/25 11:24:31;;;;;;;17.55;6.47;;;;;;;8.68;87.13;99834.30;1621069;88;21519;-77
2022/12/25 11:27:03;;;;;;;15.98;6.95;;;;;;;8.79;87.58;99830.34;1624303;87;21073;-76
2022/12/25 11:29:51;;;;;;;16.85;6.28;;;;;;;8.79;86.64;99840.70;1620326;88;21057;-77
2022/12/25 11:32:38;;;;;;;13.20;5.80;;;;;;;8.88;86.24;99835.03;1624389;87;21069;-76
2022/12/25 11:35:14;;;;;;;15.75;6.00;;;;;;;8.90;86.44;99835.89;1625808;88;21066;-76
2022/12/25 11:37:47;;;;;;;17.07;6.83;;;;;;;8.92;86.81;99825.06;1625179;87;21058;-76
2022/12/25 11:40:35;;;;;;;12.65;6.33;;;;;;;8.96;85.52;99824.17;1632923;87;21010;-76
2022/12/25 11:43:25;;;;;;;14.50;6.50;;;;;;;9.00;85.98;99830.65;1630568;88;21010;-76
2022/12/25 11:46:10;;;;;;;14.10;6.55;;;;;;;9.07;86.14;99833.61;1631726;88;21057;-75
2022/12/25 11:48:42;;;;;;;15.40;6.87;;;;;;;9.11;85.63;99837.48;1631231;88;21092;-76
2022/12/25 11:51:12;;;;;;;13.22;6.00;;;;;;;9.14;85.00;99837.89;1631217;87;21152;-77
2022/12/25 11:53:57;;;;;;;13.00;6.58;;;;;;;9.24;85.26;99833.05;1631290;88;21093;-77
2022/12/25 11:56:27;;;;;;;11.93;5.90;;;;;;;9.29;84.25;99838.19;1631931;88;21126;-78
2022/12/25 11:59:09;;;;;;;18.40;7.28;;;;;;;9.71;83.86;99840.02;1633022;88;21069;-77
2022/12/25 12:01:57;;;;;;;16.25;6.42;;;;;;;10.24;83.03;99836.41;1632149;87;21911;-77
2022/12/25 12:04:37;;;;;;;16.15;6.60;;;;;;;10.63;79.31;99834.22;1632060;87;21078;-77
2022/12/25 12:07:22;;;;;;;11.63;6.10;;;;;;;10.99;80.00;99843.23;1632061;88;21593;-77
2022/12/25 12:09:55;;;;;;;12.45;6.12;;;;;;;11.38;77.89;99842.63;1632016;87;20986;-77
2022/12/25 12:12:57;;;;;;;14.53;6.87;;;;;;;11.70;75.06;99855.98;1632131;87;21098;-77
2022/12/25 12:15:45;;;;;;;11.75;5.42;;;;;;;11.88;76.60;99844.37;1632028;87;21014;-77
2022/12/25 12:18:30;;;;;;;16.82;6.92;;;;;;;11.95;74.23;99846.44;1631984;87;21562;-77
2022/12/25 12:21:23;;;;;;;11.35;5.55;;;;;;;11.86;74.87;99845.30;1632050;87;21096;-77
2022/12/25 12:24:14;;;;;;;12.13;5.15;;;;;;;11.34;72.98;99848.35;1632023;88;21026;-77
2022/12/25 12:26:45;;;;;;;14.40;6.05;;;;;;;10.86;75.09;99853.39;1631947;88;21057;-77
2022/12/25 12:29:29;;;;;;;11.35;5.15;;;;;;;10.51;77.04;99855.59;1631905;88;21573;-77
2022/12/25 12:32:03;;;;;;;13.95;5.95;;;;;;;10.31;77.15;99853.69;1632042;88;21057;-77
2022/12/25 12:34:39;;;;;;;11.18;5.87;;;;;;;10.11;78.00;99851.29;1631393;88;21401;-77
2022/12/25 12:37:29;;;;;;;11.43;5.58;;;;;;;9.93;78.60;99851.05;1630638;88;21080;-77
2022/12/25 12:39:57;;;;;;;15.63;5.95;;;;;;;9.86;79.55;99851.52;1608770;88;21390;-77
2022/12/25 12:42:30;;;;;;;13.58;6.22;;;;;;;9.74;80.02;99856.40;1630801;88;21085;-77
2022/12/25 12:45:08;;;;;;;14.30;5.97;;;;;;;9.63;79.96;99866.05;1630861;87;21117;-77
2022/12/25 12:47:45;;;;;;;14.45;6.15;;;;;;;9.58;80.44;99876.89;1631094;88;21086;-77
2022/12/25 12:50:40;;;;;;;13.55;5.45;;;;;;;9.51;80.15;99870.91;1632033;88;21021;-77
2022/12/25 12:53:24;;;;;;;11.68;5.55;;;;;;;9.48;80.31;99874.81;1631962;85;21057;-77
2022/12/25 12:55:52;;;;;;;14.47;6.25;;;;;;;9.48;81.14;99865.72;1631967;87;22001;-75
2022/12/25 12:58:33;;;;;;;15.85;6.25;;;;;;;9.43;80.81;99877.89;1632045;87;21621;-75
2022/12/25 13:01:25;;;;;;;14.93;6.28;;;;;;;9.41;81.03;99870.97;1631048;88;21038;-76
2022/12/25 13:04:17;;;;;;;19.77;6.62;;;;;;;9.36;81.43;99864.09;1631984;87;21143;-74
2022/12/25 13:07:10;;;;;;;13.30;6.53;;;;;;;9.31;81.67;99867.58;1631985;87;21995;-74
2022/12/25 13:09:49;;;;;;;14.78;6.05;;;;;;;9.31;81.66;99857.20;1631910;87;21169;-75
2022/12/25 13:12:19;;;;;;;17.67;7.28;;;;;;;9.28;82.21;99859.39;1631699;88;21507;-75
2022/12/25 13:14:48;;;;;;;16.95;7.25;;;;;;;9.21;82.14;99859.45;1631312;87;21034;-75
2022/12/25 13:17:24;;;;;;;13.60;7.05;;;;;;;9.22;82.54;99857.30;1631652;88;21551;-75
2022/12/25 13:19:57;;;;;;;18.00;7.70;;;;;;;9.20;82.71;99857.74;1628610;87;21030;-76
2022/12/25 13:22:31;;;;;;;16.25;7.17;;;;;;;9.17;82.65;99866.39;1628897;88;21519;-75
2022/12/25 13:25:10;;;;;;;16.02;6.42;;;;;;;9.05;82.63;99860.88;1624094;87;21554;-75
2022/12/25 13:27:37;;;;;;;14.53;6.10;;;;;;;8.94;82.84;99863.52;1626663;88;21968;-76
2022/12/25 13:30:16;;;;;;;16.60;7.25;;;;;;;8.91;82.88;99852.30;1623961;87;21515;-75
2022/12/25 13:32:44;;;;;;;18.00;7.58;;;;;;;8.76;83.35;99857.16;1631566;88;20978;-75
2022/12/25 13:35:14;;;;;;;14.83;6.78;;;;;;;8.61;83.80;99855.48;1624562;87;21075;-75
2022/12/25 13:37:43;;;;;;;15.48;6.50;;;;;;;8.56;83.95;99852.92;1625506;87;21037;-75
2022/12/25 13:40:24;;;;;;;14.63;7.62;;;;;;;8.50;83.84;99854.25;1626522;87;21991;-75
2022/12/25 13:42:58;;;;;;;16.75;7.92;;;;;;;8.40;84.42;99862.05;1627295;87;20978;-75